Time;durP1;ratioP1;P1;durP2;ratioP2;P2;SDS_P1;SDS_P2;PMS_P1;PMS_P2;Temp;Humidity;BMP_temperature;BMP_pressure;BME280_temperature;BME280_humidity;BME280_pressure;Samples;Min_cycle;Max_cycle;Signal;HPM_P1;HPM_P2
2021/07/24 00:00:47;;;;;;;8.60;6.35;;;21.10;75.70;;;;;;5051205;28;20036;-73
2021/07/24 00:03:33;;;;;;;9.82;6.97;;;21.10;75.70;;;;;;5040462;28;20106;-73
2021/07/24 00:06:19;;;;;;;8.18;6.63;;;21.10;76.30;;;;;;5052652;28;20365;-74
2021/07/24 00:09:05;;;;;;;9.05;6.97;;;21.10;76.30;;;;;;5052803;28;20084;-73
2021/07/24 00:11:50;;;;;;;8.77;7.38;;;21.10;76.60;;;;;;5049463;28;20044;-74
2021/07/24 00:14:36;;;;;;;10.48;6.93;;;21.10;76.80;;;;;;5039001;28;20036;-73
2021/07/24 00:17:22;;;;;;;13.32;7.35;;;21.10;77.00;;;;;;5053003;28;20025;-73
2021/07/24 00:20:08;;;;;;;9.90;6.57;;;21.00;76.90;;;;;;5052123;28;20060;-74
2021/07/24 00:22:54;;;;;;;9.55;7.35;;;21.00;77.10;;;;;;5036340;28;20178;-73
2021/07/24 00:25:40;;;;;;;9.98;6.75;;;21.00;77.00;;;;;;5034198;28;20025;-73
2021/07/24 00:28:26;;;;;;;10.73;7.05;;;20.90;77.40;;;;;;5041042;28;20044;-73
2021/07/24 00:31:12;;;;;;;13.10;6.75;;;20.90;77.10;;;;;;5051897;28;20067;-73
2021/07/24 00:33:58;;;;;;;9.75;6.68;;;20.90;77.10;;;;;;5054124;28;20017;-73
2021/07/24 00:36:45;;;;;;;9.07;7.40;;;20.90;77.50;;;;;;5050503;28;20500;-72
2021/07/24 00:39:30;;;;;;;8.55;6.38;;;20.90;77.60;;;;;;5047256;28;20032;-73
2021/07/24 00:42:22;;;;;;;8.80;6.25;;;20.90;77.30;;;;;;5045334;28;20143;-73
2021/07/24 00:45:12;;;;;;;10.18;7.03;;;20.90;77.40;;;;;;5034071;28;20030;-73
2021/07/24 00:47:59;;;;;;;8.60;7.18;;;20.90;77.50;;;;;;5047458;28;20021;-74
2021/07/24 00:50:47;;;;;;;8.57;6.40;;;20.80;77.20;;;;;;5036208;28;20431;-74
2021/07/24 00:53:35;;;;;;;9.52;6.45;;;20.80;77.50;;;;;;5041210;28;20025;-73
2021/07/24 00:56:27;;;;;;;8.90;6.38;;;20.80;77.30;;;;;;5050376;28;20033;-73
2021/07/24 00:59:13;;;;;;;8.98;6.43;;;20.80;77.70;;;;;;5053009;28;20031;-72
2021/07/24 01:01:58;;;;;;;10.40;6.97;;;20.80;77.60;;;;;;5043858;28;20037;-73
2021/07/24 01:04:44;;;;;;;8.88;6.22;;;20.80;77.40;;;;;;5051013;28;20037;-74
2021/07/24 01:07:34;;;;;;;8.10;6.30;;;20.70;77.40;;;;;;5043746;28;20796;-74
2021/07/24 01:10:20;;;;;;;10.57;6.53;;;20.70;77.40;;;;;;5044751;28;20044;-74
2021/07/24 01:13:06;;;;;;;8.25;6.32;;;20.70;77.40;;;;;;5050602;28;20066;-74
2021/07/24 01:15:52;;;;;;;8.32;6.53;;;20.70;77.50;;;;;;5052606;28;20385;-74
2021/07/24 01:18:38;;;;;;;10.48;7.13;;;20.70;77.60;;;;;;5044732;28;20031;-73
2021/07/24 01:21:28;;;;;;;10.02;7.20;;;20.60;77.60;;;;;;5049939;28;20029;-73
2021/07/24 01:24:14;;;;;;;7.82;6.15;;;20.60;77.80;;;;;;5052230;28;20029;-74
2021/07/24 01:27:06;;;;;;;8.48;7.07;;;20.60;78.10;;;;;;5051901;28;20048;-74
2021/07/24 01:29:52;;;;;;;8.52;7.22;;;20.60;78.20;;;;;;5050739;28;20037;-73
2021/07/24 01:32:38;;;;;;;8.13;6.55;;;20.60;78.20;;;;;;5039907;28;20701;-73
2021/07/24 01:35:22;;;;;;;9.10;6.90;;;20.60;78.60;;;;;;5051591;28;20071;-72
2021/07/24 01:38:07;;;;;;;9.53;7.77;;;20.60;78.70;;;;;;5049074;28;20427;-73
2021/07/24 01:41:07;;;;;;;9.02;7.25;;;20.50;78.80;;;;;;5048637;28;20404;-73
2021/07/24 01:43:51;;;;;;;8.45;7.18;;;20.60;79.00;;;;;;5043793;28;20047;-72
2021/07/24 01:46:35;;;;;;;9.65;7.35;;;20.50;79.40;;;;;;5038842;28;20120;-73
2021/07/24 01:52:49;;;;;;;9.80;7.18;;;20.50;79.90;;;;;;5032436;28;20764;-72
2021/07/24 01:55:52;;;;;;;9.43;7.32;;;20.50;80.10;;;;;;5048967;28;20051;-72
2021/07/24 01:58:37;;;;;;;9.38;7.68;;;20.50;80.40;;;;;;5049901;28;20043;-72
2021/07/24 02:01:24;;;;;;;11.02;7.28;;;20.50;80.50;;;;;;5051080;28;20045;-72
2021/07/24 02:04:13;;;;;;;9.60;7.63;;;20.50;80.90;;;;;;5049993;28;20552;-73
2021/07/24 02:06:56;;;;;;;9.70;7.50;;;20.40;81.20;;;;;;5032520;28;20044;-74
2021/07/24 02:09:40;;;;;;;9.80;7.13;;;20.40;81.30;;;;;;5044631;28;20155;-73
2021/07/24 02:12:24;;;;;;;10.13;7.73;;;20.40;81.50;;;;;;5046799;28;20044;-73
2021/07/24 02:15:09;;;;;;;8.90;7.70;;;20.40;81.80;;;;;;5049322;28;20298;-73
2021/07/24 02:17:53;;;;;;;11.02;7.78;;;20.40;82.40;;;;;;5051698;28;20349;-74
2021/07/24 02:20:37;;;;;;;11.38;8.65;;;20.40;82.10;;;;;;5049305;28;20039;-74
2021/07/24 02:23:22;;;;;;;10.65;8.40;;;20.40;82.40;;;;;;5051552;28;20035;-74
2021/07/24 02:26:08;;;;;;;14.00;8.73;;;20.40;82.50;;;;;;5043004;28;20088;-74
2021/07/24 02:28:52;;;;;;;9.48;7.95;;;20.30;82.80;;;;;;5051083;28;20060;-75
2021/07/24 02:31:36;;;;;;;11.50;9.57;;;20.30;83.10;;;;;;5050355;28;20040;-75
2021/07/24 02:34:20;;;;;;;14.75;11.05;;;20.30;83.40;;;;;;5050287;28;20337;-75
2021/07/24 02:37:04;;;;;;;12.50;9.33;;;20.30;83.50;;;;;;5051207;28;20083;-74
2021/07/24 02:39:48;;;;;;;13.13;9.75;;;20.30;83.90;;;;;;5049155;28;20040;-74
2021/07/24 02:42:32;;;;;;;13.13;9.75;;;20.20;84.00;;;;;;5049558;28;20130;-76
2021/07/24 02:45:16;;;;;;;11.85;9.40;;;20.20;84.20;;;;;;5048752;28;20040;-76
2021/07/24 02:48:00;;;;;;;15.10;10.18;;;20.20;84.40;;;;;;5051795;28;20052;-76
2021/07/24 02:50:44;;;;;;;11.77;9.45;;;20.20;84.60;;;;;;5050401;28;20793;-76
2021/07/24 02:53:28;;;;;;;11.65;8.98;;;20.20;84.80;;;;;;5050055;28;20039;-73
2021/07/24 02:56:12;;;;;;;14.57;9.77;;;20.20;85.00;;;;;;5041115;28;20043;-74
2021/07/24 02:58:56;;;;;;;12.30;9.37;;;20.10;85.10;;;;;;5047488;28;20036;-74
2021/07/24 03:01:41;;;;;;;16.27;10.63;;;20.10;85.40;;;;;;5045072;28;20055;-73
2021/07/24 03:04:25;;;;;;;15.55;10.80;;;20.20;85.60;;;;;;5049398;28;20055;-74
2021/07/24 03:07:09;;;;;;;13.75;11.60;;;20.10;85.70;;;;;;5029916;28;20124;-73
2021/07/24 03:09:54;;;;;;;12.63;9.98;;;20.10;85.90;;;;;;5048462;28;20048;-74
2021/07/24 03:12:38;;;;;;;14.57;9.98;;;20.10;86.10;;;;;;5052097;28;20039;-74
2021/07/24 03:15:22;;;;;;;15.10;10.40;;;20.00;86.30;;;;;;5052984;28;20060;-74
2021/07/24 03:18:06;;;;;;;16.00;11.27;;;20.00;86.50;;;;;;5055534;28;20333;-74
2021/07/24 03:20:50;;;;;;;15.57;11.07;;;20.00;86.80;;;;;;5052877;28;20078;-75
2021/07/24 03:23:34;;;;;;;16.17;11.38;;;19.90;86.90;;;;;;5054214;28;20396;-76
2021/07/24 03:26:19;;;;;;;14.88;11.60;;;20.00;87.00;;;;;;5054405;28;20534;-75
2021/07/24 03:29:03;;;;;;;17.42;11.98;;;19.90;87.20;;;;;;5053539;28;20091;-76
2021/07/24 03:31:47;;;;;;;14.07;11.37;;;19.90;87.50;;;;;;5053716;28;20044;-76
2021/07/24 03:34:31;;;;;;;13.73;10.80;;;19.90;88.00;;;;;;5051703;28;20793;-75
2021/07/24 03:37:15;;;;;;;14.85;10.00;;;19.90;87.70;;;;;;5055565;28;20062;-75
2021/07/24 03:39:59;;;;;;;14.83;11.27;;;19.90;87.80;;;;;;5053365;28;20125;-75
2021/07/24 03:42:43;;;;;;;15.82;10.55;;;19.90;88.10;;;;;;5035309;28;20091;-74
2021/07/24 03:45:27;;;;;;;15.60;11.57;;;19.80;88.20;;;;;;5049321;28;20039;-75
2021/07/24 03:47:53;;;;;;;15.35;12.18;;;19.80;88.40;;;;;;5034927;28;20116;-75
2021/07/24 03:50:37;;;;;;;16.57;11.30;;;19.80;88.50;;;;;;5051440;28;20520;-75
2021/07/24 03:53:23;;;;;;;15.25;12.27;;;19.80;88.60;;;;;;5052781;28;20126;-74
2021/07/24 03:56:16;;;;;;;17.10;11.13;;;19.80;88.70;;;;;;5019709;28;20079;-74
2021/07/24 03:59:02;;;;;;;16.48;11.60;;;19.80;89.10;;;;;;5042681;28;20489;-74
2021/07/24 04:01:50;;;;;;;13.23;10.98;;;19.80;89.10;;;;;;5053536;28;20036;-74
2021/07/24 04:04:36;;;;;;;14.68;11.88;;;19.80;89.30;;;;;;5051708;28;20032;-74
2021/07/24 04:07:22;;;;;;;16.45;11.30;;;19.90;89.40;;;;;;5039641;28;20370;-74
2021/07/24 04:10:10;;;;;;;15.23;11.70;;;19.90;89.50;;;;;;5037619;28;20060;-73
2021/07/24 04:12:56;;;;;;;14.30;10.60;;;19.90;89.60;;;;;;5052970;28;20041;-73
2021/07/24 04:15:42;;;;;;;14.93;11.00;;;19.90;89.70;;;;;;5051311;28;20049;-73
2021/07/24 04:18:31;;;;;;;15.68;12.27;;;19.90;89.80;;;;;;5031962;28;20021;-73
2021/07/24 04:21:17;;;;;;;14.02;10.77;;;19.90;89.70;;;;;;5051013;28;20032;-73
2021/07/24 04:24:03;;;;;;;15.00;11.00;;;20.00;89.90;;;;;;5051083;28;20040;-73
2021/07/24 04:26:49;;;;;;;13.52;10.70;;;20.00;89.80;;;;;;5052776;28;20025;-73
2021/07/24 04:29:35;;;;;;;14.88;11.23;;;20.00;89.80;;;;;;5027240;28;20037;-73
2021/07/24 04:32:21;;;;;;;15.18;10.75;;;20.10;90.00;;;;;;5044816;28;20076;-74
2021/07/24 04:35:07;;;;;;;14.38;11.00;;;20.10;89.90;;;;;;5050136;28;20098;-71
2021/07/24 04:37:53;;;;;;;15.07;11.00;;;20.10;90.00;;;;;;5052625;28;20037;-72
2021/07/24 04:40:39;;;;;;;16.42;11.18;;;20.10;90.00;;;;;;5035322;28;20036;-71
2021/07/24 04:43:25;;;;;;;16.85;11.68;;;20.20;89.90;;;;;;5052155;28;20025;-72
2021/07/24 04:46:12;;;;;;;14.30;11.30;;;20.20;89.80;;;;;;5043044;28;20484;-73
2021/07/24 04:48:58;;;;;;;17.13;12.18;;;20.20;90.10;;;;;;5046475;28;20092;-74
2021/07/24 04:51:44;;;;;;;17.02;12.35;;;20.20;89.80;;;;;;5032879;28;20025;-73
2021/07/24 04:54:30;;;;;;;18.13;11.82;;;20.30;89.90;;;;;;5042925;28;20060;-74
2021/07/24 04:57:17;;;;;;;13.82;10.45;;;20.30;89.60;;;;;;5050558;28;20087;-74
2021/07/24 05:00:06;;;;;;;15.40;11.38;;;20.30;89.70;;;;;;5038755;28;20033;-74
2021/07/24 05:02:52;;;;;;;18.33;11.95;;;20.40;89.60;;;;;;5034621;28;20048;-74
2021/07/24 05:05:39;;;;;;;16.23;11.70;;;20.50;89.20;;;;;;5050140;28;20068;-74
2021/07/24 05:08:25;;;;;;;15.80;11.48;;;20.50;89.40;;;;;;5051927;28;20017;-73
2021/07/24 05:11:11;;;;;;;14.32;11.05;;;20.50;89.00;;;;;;5019166;28;20033;-73
2021/07/24 05:13:57;;;;;;;14.25;10.55;;;20.60;89.20;;;;;;5032985;28;20053;-73
2021/07/24 05:16:42;;;;;;;15.32;11.18;;;20.60;89.50;;;;;;5032707;28;20052;-73
2021/07/24 05:19:28;;;;;;;16.67;11.55;;;20.70;89.10;;;;;;5051419;28;20021;-73
2021/07/24 05:22:14;;;;;;;16.85;10.55;;;20.70;88.90;;;;;;5049242;28;20033;-73
2021/07/24 05:25:00;;;;;;;16.27;10.65;;;20.80;89.20;;;;;;5038004;28;20033;-73
2021/07/24 05:27:46;;;;;;;15.43;11.05;;;20.90;88.80;;;;;;5036463;28;20013;-73
2021/07/24 05:30:32;;;;;;;14.57;10.88;;;20.90;88.60;;;;;;5049320;28;20029;-73
2021/07/24 05:33:18;;;;;;;15.95;11.48;;;21.00;88.50;;;;;;5054711;28;20100;-74
2021/07/24 05:36:04;;;;;;;14.85;10.57;;;21.00;88.50;;;;;;5042594;28;20044;-73
2021/07/24 05:38:49;;;;;;;13.75;10.25;;;21.00;88.10;;;;;;5049369;28;20537;-73
2021/07/24 05:41:35;;;;;;;12.70;9.93;;;21.10;88.80;;;;;;5051572;28;20056;-71
2021/07/24 05:44:21;;;;;;;14.52;10.55;;;21.10;88.20;;;;;;5048298;28;20079;-73
2021/07/24 05:47:07;;;;;;;13.02;10.95;;;21.20;88.30;;;;;;5041300;28;20018;-72
2021/07/24 05:49:52;;;;;;;14.57;11.20;;;21.20;87.90;;;;;;5047995;28;20133;-73
2021/07/24 05:52:36;;;;;;;;;;;21.30;87.70;;;;;;5037575;28;20056;-72
2021/07/24 05:55:20;;;;;;;14.20;11.38;;;21.40;87.60;;;;;;5047866;28;19923;-73
2021/07/24 05:58:07;;;;;;;17.63;10.98;;;21.40;87.50;;;;;;5051922;28;20059;-73
2021/07/24 06:00:52;;;;;;;16.42;10.77;;;21.50;87.60;;;;;;5049664;28;20090;-73
2021/07/24 06:03:36;;;;;;;14.30;11.20;;;21.50;87.20;;;;;;5050959;28;20067;-73
2021/07/24 06:06:20;;;;;;;13.45;10.93;;;21.50;86.90;;;;;;5044696;28;20307;-71
2021/07/24 06:09:04;;;;;;;13.17;10.23;;;21.60;87.00;;;;;;5036171;28;20134;-71
2021/07/24 06:11:48;;;;;;;16.67;10.77;;;21.70;87.20;;;;;;5052206;28;20291;-69
2021/07/24 06:14:32;;;;;;;16.10;10.13;;;21.80;86.90;;;;;;5049248;28;20039;-73
2021/07/24 06:17:16;;;;;;;13.30;11.10;;;21.80;86.70;;;;;;5036569;28;20511;-75
2021/07/24 06:20:00;;;;;;;12.88;10.13;;;21.90;87.00;;;;;;5034192;28;20036;-73
2021/07/24 06:22:44;;;;;;;14.30;11.15;;;22.00;86.90;;;;;;5051469;28;20047;-73
2021/07/24 06:25:28;;;;;;;14.23;10.93;;;22.10;86.50;;;;;;5033100;28;20507;-75
2021/07/24 06:28:12;;;;;;;14.47;11.03;;;22.10;86.10;;;;;;5051131;28;20306;-74
2021/07/24 06:30:56;;;;;;;13.68;9.82;;;22.20;86.00;;;;;;5049035;28;20282;-74
2021/07/24 06:33:40;;;;;;;14.87;10.77;;;22.30;85.70;;;;;;5044012;28;20079;-75
2021/07/24 06:36:24;;;;;;;13.07;10.27;;;22.30;85.80;;;;;;5051140;28;20090;-75
2021/07/24 06:39:08;;;;;;;14.20;10.30;;;22.40;85.50;;;;;;5047606;28;20040;-76
2021/07/24 06:41:52;;;;;;;13.02;10.23;;;22.50;85.40;;;;;;5051783;28;20524;-76
2021/07/24 06:44:36;;;;;;;15.07;10.37;;;22.60;85.00;;;;;;5050594;28;20099;-76
2021/07/24 06:47:21;;;;;;;14.32;10.02;;;22.70;84.90;;;;;;5032161;28;20285;-73
2021/07/24 06:50:06;;;;;;;16.17;11.43;;;22.70;84.30;;;;;;5041598;28;20134;-74
2021/07/24 06:52:51;;;;;;;;;;;22.80;84.30;;;;;;5036936;28;20066;-72
2021/07/24 06:55:35;;;;;;;11.90;9.75;;;22.90;84.20;;;;;;5049549;28;19940;-71
2021/07/24 06:58:19;;;;;;;13.33;10.03;;;22.90;84.40;;;;;;5050376;28;20079;-71
2021/07/24 07:01:09;;;;;;;16.00;10.55;;;23.10;84.10;;;;;;5031773;28;20512;-72
2021/07/24 07:03:54;;;;;;;13.00;9.73;;;23.20;84.60;;;;;;5033127;28;20086;-72
2021/07/24 07:06:42;;;;;;;14.37;11.83;;;23.20;83.60;;;;;;5050935;28;20036;-72
2021/07/24 07:09:26;;;;;;;12.43;9.65;;;23.30;83.10;;;;;;5049702;28;20444;-71
2021/07/24 07:12:10;;;;;;;13.05;9.32;;;23.40;82.40;;;;;;5050002;28;20031;-71
2021/07/24 07:14:54;;;;;;;14.65;9.90;;;23.50;82.30;;;;;;5040964;28;20068;-72
2021/07/24 07:17:38;;;;;;;14.68;10.05;;;23.60;81.40;;;;;;5029366;28;20043;-73
2021/07/24 07:20:22;;;;;;;13.55;9.63;;;23.70;80.80;;;;;;5048214;28;20401;-73
2021/07/24 07:23:06;;;;;;;12.63;8.82;;;23.70;80.80;;;;;;5048402;28;20044;-77
2021/07/24 07:25:50;;;;;;;12.30;8.77;;;23.80;80.60;;;;;;5047759;28;20580;-76
2021/07/24 07:28:35;;;;;;;12.88;9.07;;;23.90;80.00;;;;;;5046495;28;20124;-72
2021/07/24 07:31:19;;;;;;;14.05;10.27;;;24.00;80.10;;;;;;5044799;28;20519;-72
2021/07/24 07:34:03;;;;;;;13.32;9.88;;;24.10;79.80;;;;;;5043988;28;20127;-71
2021/07/24 07:36:48;;;;;;;12.85;9.70;;;24.10;78.80;;;;;;5045428;28;20091;-72
2021/07/24 07:39:32;;;;;;;13.63;10.03;;;24.30;78.50;;;;;;5047319;28;20028;-72
2021/07/24 07:42:16;;;;;;;12.23;10.05;;;24.30;78.40;;;;;;5046023;28;20321;-72
2021/07/24 07:45:01;;;;;;;13.07;9.65;;;24.40;77.50;;;;;;5046637;28;20076;-72
2021/07/24 07:47:45;;;;;;;14.60;9.65;;;24.50;77.00;;;;;;5049088;28;20086;-72
2021/07/24 07:50:30;;;;;;;13.23;8.45;;;24.60;76.40;;;;;;5049560;28;20055;-72
2021/07/24 07:53:14;;;;;;;16.17;9.85;;;24.70;76.70;;;;;;5050919;28;20036;-72
2021/07/24 07:56:00;;;;;;;13.02;10.20;;;24.70;76.10;;;;;;5037898;28;20032;-72
2021/07/24 07:58:46;;;;;;;15.10;11.02;;;24.80;76.10;;;;;;5034507;28;20105;-72
2021/07/24 08:01:32;;;;;;;13.27;9.82;;;24.90;75.20;;;;;;5041906;28;20041;-72
2021/07/24 08:04:18;;;;;;;12.35;10.45;;;25.00;75.10;;;;;;5045616;28;20039;-71
2021/07/24 08:07:04;;;;;;;12.52;9.77;;;25.10;74.70;;;;;;5051193;28;20025;-71
2021/07/24 08:09:50;;;;;;;13.05;9.85;;;25.20;74.50;;;;;;5048573;28;20037;-75
2021/07/24 08:12:36;;;;;;;12.88;10.23;;;25.20;73.50;;;;;;5052142;28;20488;-72
2021/07/24 08:15:22;;;;;;;14.20;10.30;;;25.30;73.20;;;;;;5046711;28;20025;-72
2021/07/24 08:18:08;;;;;;;13.05;10.25;;;25.40;72.70;;;;;;5048739;28;20129;-74
2021/07/24 08:20:53;;;;;;;13.93;10.73;;;25.50;72.70;;;;;;5047800;28;20500;-73
2021/07/24 08:23:39;;;;;;;13.73;9.93;;;25.50;72.50;;;;;;5047831;28;20039;-71
2021/07/24 08:26:25;;;;;;;12.65;9.65;;;25.60;71.80;;;;;;5044635;28;20100;-72
2021/07/24 08:29:11;;;;;;;13.13;9.20;;;25.70;72.20;;;;;;5050087;28;20468;-72
2021/07/24 08:31:58;;;;;;;12.80;10.48;;;25.80;71.60;;;;;;5048269;28;20039;-72
2021/07/24 08:34:51;;;;;;;12.93;10.00;;;25.90;71.40;;;;;;5042747;28;20435;-71
2021/07/24 08:37:37;;;;;;;12.00;9.48;;;26.00;70.40;;;;;;5042226;28;20037;-70
2021/07/24 08:40:23;;;;;;;13.77;9.93;;;26.10;70.70;;;;;;5047102;28;20082;-71
2021/07/24 08:43:09;;;;;;;11.60;9.23;;;26.20;70.20;;;;;;5058430;28;20062;-71
2021/07/24 08:45:58;;;;;;;13.13;10.52;;;26.30;68.80;;;;;;5048007;28;20115;-70
2021/07/24 08:48:44;;;;;;;13.50;10.18;;;26.30;67.70;;;;;;5032746;28;20036;-71
2021/07/24 08:51:32;;;;;;;14.70;10.50;;;26.40;66.30;;;;;;5049519;28;20025;-71
2021/07/24 08:54:18;;;;;;;12.77;9.80;;;26.50;66.80;;;;;;5034217;28;20459;-70
2021/07/24 08:57:06;;;;;;;13.48;9.65;;;26.50;66.40;;;;;;5052891;28;20492;-68
2021/07/24 08:59:55;;;;;;;12.70;10.20;;;26.60;65.90;;;;;;5029838;28;20027;-67
2021/07/24 09:02:46;;;;;;;11.07;9.18;;;26.60;65.30;;;;;;5052563;28;20043;-68
2021/07/24 09:05:35;;;;;;;12.48;9.88;;;26.70;64.10;;;;;;5035848;28;20469;-68
2021/07/24 09:08:27;;;;;;;12.18;9.75;;;26.70;65.00;;;;;;5036616;28;20029;-68
2021/07/24 09:11:13;;;;;;;13.10;10.65;;;26.80;64.50;;;;;;5044419;28;20400;-68
2021/07/24 09:13:59;;;;;;;12.25;9.32;;;26.90;63.90;;;;;;5053273;28;20021;-67
2021/07/24 09:16:48;;;;;;;12.80;9.55;;;26.90;63.40;;;;;;5051862;28;20055;-69
2021/07/24 09:19:34;;;;;;;13.57;10.13;;;27.00;62.80;;;;;;5050302;28;20029;-68
2021/07/24 09:22:31;;;;;;;12.13;8.98;;;27.10;62.70;;;;;;5042592;28;20057;-68
2021/07/24 09:25:18;;;;;;;11.77;8.38;;;27.20;62.80;;;;;;5041993;28;20389;-68
2021/07/24 09:28:10;;;;;;;13.75;9.68;;;27.20;61.30;;;;;;5044006;28;20029;-68
2021/07/24 09:30:56;;;;;;;12.77;9.50;;;27.30;60.10;;;;;;5051707;28;20029;-68
2021/07/24 09:33:50;;;;;;;14.43;8.70;;;27.30;60.20;;;;;;5049092;28;20043;-67
2021/07/24 09:36:37;;;;;;;13.00;8.93;;;27.40;59.70;;;;;;5033102;28;20037;-67
2021/07/24 09:39:26;;;;;;;10.52;8.80;;;27.40;59.10;;;;;;5048653;28;20412;-68
2021/07/24 09:42:12;;;;;;;11.50;8.70;;;27.50;59.10;;;;;;5037568;28;20436;-68
2021/07/24 09:45:07;;;;;;;11.23;8.55;;;27.50;57.90;;;;;;5050701;28;20025;-68
2021/07/24 09:47:54;;;;;;;11.77;9.18;;;27.60;58.80;;;;;;5028122;28;20080;-68
2021/07/24 09:50:39;;;;;;;13.10;9.70;;;27.70;58.80;;;;;;5049757;28;20066;-68
2021/07/24 09:53:38;;;;;;;;;;;27.70;58.80;;;;;;5051972;28;20032;-67
2021/07/24 09:56:40;;;;;;;13.27;8.93;;;27.80;59.80;;;;;;5039108;28;19927;-68
2021/07/24 09:59:29;;;;;;;11.57;8.77;;;27.80;58.00;;;;;;5042229;28;20082;-68
2021/07/24 10:02:15;;;;;;;10.40;8.35;;;27.90;57.50;;;;;;5032129;28;20040;-68
2021/07/24 10:05:00;;;;;;;11.70;8.60;;;27.90;56.40;;;;;;5031950;28;20091;-68
2021/07/24 10:07:44;;;;;;;13.30;8.77;;;27.90;56.40;;;;;;5049559;28;20043;-70
2021/07/24 10:10:29;;;;;;;12.48;8.80;;;28.00;56.80;;;;;;5050387;28;20040;-68
2021/07/24 10:13:14;;;;;;;11.82;9.05;;;28.10;57.30;;;;;;5052134;28;20451;-68
2021/07/24 10:15:59;;;;;;;10.63;8.30;;;28.20;55.30;;;;;;5048019;28;20052;-68
2021/07/24 10:18:45;;;;;;;11.15;8.43;;;28.20;55.50;;;;;;5046040;28;20115;-68
2021/07/24 10:21:29;;;;;;;10.00;8.75;;;28.20;54.80;;;;;;5050591;28;20089;-68
2021/07/24 10:23:55;;;;;;;12.32;8.15;;;28.30;55.60;;;;;;5018077;28;20029;-69
2021/07/24 10:26:26;;;;;;;10.48;8.88;;;28.40;54.90;;;;;;5031659;28;20136;-69
2021/07/24 10:29:04;;;;;;;9.95;8.35;;;28.40;54.30;;;;;;5043418;28;20029;-68
2021/07/24 10:31:36;;;;;;;11.30;9.10;;;28.40;54.60;;;;;;5048990;28;20017;-68
2021/07/24 10:34:04;;;;;;;10.35;9.15;;;28.40;54.40;;;;;;5045822;28;20025;-69
2021/07/24 10:36:38;;;;;;;11.55;9.20;;;28.40;54.50;;;;;;5051203;28;20036;-69
2021/07/24 10:39:23;;;;;;;10.15;8.50;;;28.50;55.30;;;;;;5038144;28;20132;-68
2021/07/24 10:42:11;;;;;;;12.43;9.82;;;28.60;54.60;;;;;;5050455;28;20121;-68
2021/07/24 10:44:55;;;;;;;13.60;9.60;;;28.70;54.80;;;;;;5047279;28;20201;-68
2021/07/24 10:48:17;;;;;;;11.13;9.02;;;28.80;54.90;;;;;;5050522;28;20083;-68
2021/07/24 10:51:01;;;;;;;11.07;8.48;;;29.00;54.70;;;;;;5050236;28;20035;-68
2021/07/24 10:54:05;;;;;;;11.93;9.23;;;29.10;54.40;;;;;;5048577;28;20143;-68
2021/07/24 10:56:50;;;;;;;10.70;8.95;;;29.20;53.90;;;;;;5035191;28;20136;-68
2021/07/24 10:59:33;;;;;;;10.95;8.25;;;29.30;54.80;;;;;;5041483;28;20534;-69
2021/07/24 11:02:44;;;;;;;14.57;9.10;;;29.40;54.70;;;;;;5049072;28;20094;-68
2021/07/24 11:05:25;;;;;;;11.40;8.75;;;29.50;54.00;;;;;;5041540;28;20516;-69
2021/07/24 11:07:51;;;;;;;11.80;9.25;;;29.50;52.70;;;;;;5048423;28;20047;-69
2021/07/24 11:10:36;;;;;;;9.73;8.40;;;29.50;52.80;;;;;;5049727;28;20495;-69
2021/07/24 11:13:45;;;;;;;12.05;9.57;;;29.60;53.30;;;;;;5049661;28;20099;-68
2021/07/24 11:17:07;;;;;;;12.85;9.50;;;29.50;53.10;;;;;;5031193;28;20167;-69
2021/07/24 11:19:51;;;;;;;10.43;8.95;;;29.40;52.20;;;;;;5040370;28;20036;-68
2021/07/24 11:22:56;;;;;;;13.35;9.77;;;29.40;52.20;;;;;;5050747;28;20550;-68
2021/07/24 11:25:41;;;;;;;11.20;9.32;;;29.40;53.00;;;;;;5046985;28;20036;-68
2021/07/24 11:28:25;;;;;;;11.75;10.13;;;29.40;52.30;;;;;;5041049;28;20321;-68
2021/07/24 11:31:10;;;;;;;14.13;9.00;;;29.40;52.30;;;;;;5036862;28;20175;-68
2021/07/24 11:33:54;;;;;;;13.43;10.38;;;29.40;52.70;;;;;;5048430;28;20036;-68
2021/07/24 11:36:38;;;;;;;11.68;9.75;;;29.40;51.50;;;;;;5036932;28;20052;-69
2021/07/24 11:39:27;;;;;;;14.98;10.27;;;29.40;52.60;;;;;;5042061;28;20047;-69
2021/07/24 11:42:20;;;;;;;12.75;8.68;;;29.50;52.20;;;;;;5048811;28;20052;-69
2021/07/24 11:45:04;;;;;;;12.18;8.60;;;29.50;52.50;;;;;;5042568;28;20032;-69
2021/07/24 11:48:04;;;;;;;11.85;8.82;;;29.40;52.20;;;;;;5043241;28;20534;-69
2021/07/24 11:50:51;;;;;;;12.15;8.85;;;29.50;52.80;;;;;;5043197;28;20463;-69
2021/07/24 11:53:35;;;;;;;10.15;7.97;;;29.50;51.90;;;;;;5049538;28;20091;-68
2021/07/24 11:56:20;;;;;;;11.13;8.45;;;29.60;52.00;;;;;;5054670;28;20142;-69
2021/07/24 11:59:04;;;;;;;11.43;7.93;;;29.60;51.70;;;;;;5048257;28;20209;-68
2021/07/24 12:01:48;;;;;;;10.07;8.02;;;29.70;51.60;;;;;;5037680;28;20044;-68
2021/07/24 12:04:46;;;;;;;10.43;7.85;;;29.70;51.50;;;;;;5047932;28;20032;-68
2021/07/24 12:07:31;;;;;;;9.35;7.88;;;29.80;51.20;;;;;;5054669;28;20067;-68
2021/07/24 12:10:15;;;;;;;10.85;8.68;;;29.90;51.30;;;;;;5050816;28;20028;-68
2021/07/24 12:12:59;;;;;;;12.75;8.25;;;30.00;51.40;;;;;;5054280;28;20519;-68
2021/07/24 12:16:04;;;;;;;9.70;7.40;;;30.00;50.70;;;;;;5051066;28;20160;-68
2021/07/24 12:18:52;;;;;;;9.68;8.05;;;30.00;50.10;;;;;;5037659;28;20029;-68
2021/07/24 12:21:37;;;;;;;9.68;7.55;;;30.00;49.70;;;;;;5053956;28;20047;-68
2021/07/24 12:24:25;;;;;;;8.57;7.55;;;30.00;50.50;;;;;;5053053;28;20089;-67
2021/07/24 12:27:11;;;;;;;11.05;9.85;;;30.10;50.10;;;;;;5054402;28;20036;-67
2021/07/24 12:30:00;;;;;;;11.88;8.63;;;30.20;49.90;;;;;;5052493;28;20131;-67
2021/07/24 12:32:45;;;;;;;11.02;9.18;;;30.20;49.90;;;;;;5050420;28;20048;-68
2021/07/24 12:35:29;;;;;;;10.85;8.27;;;30.30;50.90;;;;;;5051201;28;20036;-68
2021/07/24 12:38:14;;;;;;;12.90;8.07;;;30.30;51.20;;;;;;5051878;28;20099;-67
2021/07/24 12:41:08;;;;;;;11.07;7.55;;;30.40;50.60;;;;;;5041467;28;20031;-68
2021/07/24 12:44:01;;;;;;;11.63;8.38;;;30.50;51.00;;;;;;5052294;28;20535;-68
2021/07/24 12:47:12;;;;;;;10.20;7.97;;;30.60;51.10;;;;;;5052534;28;20469;-68
2021/07/24 12:49:56;;;;;;;11.32;8.63;;;30.60;50.30;;;;;;5051589;28;20410;-68
2021/07/24 12:52:51;;;;;;;8.95;7.75;;;30.60;49.60;;;;;;5051092;28;20484;-68
2021/07/24 12:55:35;;;;;;;9.38;8.07;;;30.60;49.60;;;;;;5052101;28;20063;-68
2021/07/24 12:58:19;;;;;;;10.45;7.80;;;30.70;51.00;;;;;;5050079;28;20464;-68
2021/07/24 13:01:11;;;;;;;11.80;8.20;;;30.90;50.30;;;;;;5051054;28;20039;-68
2021/07/24 13:03:56;;;;;;;10.98;8.35;;;31.00;49.10;;;;;;5047568;28;20048;-68
2021/07/24 13:06:40;;;;;;;8.98;7.80;;;31.10;49.40;;;;;;5049205;28;20036;-68
2021/07/24 13:09:24;;;;;;;9.05;7.50;;;31.20;48.90;;;;;;5038298;28;20039;-68
2021/07/24 13:12:08;;;;;;;8.90;7.82;;;31.20;49.50;;;;;;5042259;28;20076;-68
2021/07/24 13:14:55;;;;;;;9.38;7.63;;;31.40;49.70;;;;;;5046183;28;20040;-69
2021/07/24 13:17:41;;;;;;;9.80;8.30;;;31.50;48.20;;;;;;5050005;28;20136;-69
2021/07/24 13:20:26;;;;;;;13.02;8.25;;;31.50;48.90;;;;;;5033809;28;20022;-68
2021/07/24 13:23:12;;;;;;;10.40;8.07;;;31.50;48.20;;;;;;5044726;28;20090;-69
2021/07/24 13:26:08;;;;;;;10.23;8.55;;;31.40;48.30;;;;;;5048823;28;20037;-69
2021/07/24 13:28:54;;;;;;;10.13;8.07;;;31.30;48.60;;;;;;5055440;28;20045;-69
2021/07/24 13:31:41;;;;;;;10.32;8.38;;;31.20;48.60;;;;;;5042166;28;20063;-68
2021/07/24 13:34:28;;;;;;;9.98;7.75;;;31.20;49.10;;;;;;5048462;28;20032;-68
2021/07/24 13:37:22;;;;;;;9.43;8.32;;;31.20;49.00;;;;;;5050434;28;20107;-68
2021/07/24 13:40:09;;;;;;;10.88;7.97;;;31.20;48.50;;;;;;5045495;28;20076;-69
2021/07/24 13:42:58;;;;;;;9.98;8.05;;;31.40;48.80;;;;;;5049495;28;20037;-69
2021/07/24 13:45:44;;;;;;;10.40;8.30;;;31.40;48.60;;;;;;5049182;28;20067;-71
2021/07/24 13:48:29;;;;;;;10.32;7.50;;;31.40;48.50;;;;;;5040021;28;20045;-70
2021/07/24 13:51:26;;;;;;;9.20;7.90;;;31.50;48.10;;;;;;5047317;28;20036;-69
2021/07/24 13:54:12;;;;;;;9.43;7.93;;;31.40;47.60;;;;;;5036881;28;20056;-70
2021/07/24 13:56:58;;;;;;;9.77;8.02;;;31.20;47.40;;;;;;5047015;28;20037;-70
2021/07/24 13:59:44;;;;;;;9.98;8.27;;;31.10;47.80;;;;;;5044713;28;20580;-71
2021/07/24 14:02:32;;;;;;;9.75;7.72;;;31.10;47.90;;;;;;5045593;28;20029;-70
2021/07/24 14:05:18;;;;;;;10.30;7.45;;;31.30;48.10;;;;;;5045310;28;20112;-69
2021/07/24 14:08:04;;;;;;;10.30;8.10;;;31.50;48.50;;;;;;5043562;28;20031;-69
2021/07/24 14:10:50;;;;;;;10.00;7.45;;;31.60;47.70;;;;;;5049903;28;20079;-70
2021/07/24 14:13:36;;;;;;;9.13;7.85;;;31.70;47.90;;;;;;5043774;28;20425;-70
2021/07/24 14:16:22;;;;;;;9.70;7.47;;;31.80;48.00;;;;;;5037563;28;20040;-70